createdAt,value
2018-06-19T00:01:38.108Z,2.73
2018-06-19T00:04:05.682Z,2.70
2018-06-19T00:06:33.224Z,2.50
2018-06-19T00:09:00.772Z,2.40
2018-06-19T00:11:28.367Z,2.77
2018-06-19T00:13:55.845Z,2.80
2018-06-19T00:16:23.398Z,2.60
2018-06-19T00:18:54.191Z,2.80
2018-06-19T00:21:26.909Z,3.47
2018-06-19T00:23:54.533Z,2.80
2018-06-19T00:26:22.113Z,3.50
2018-06-19T00:28:49.663Z,2.53
2018-06-19T00:31:17.275Z,2.53
2018-06-19T00:33:44.838Z,3.00
2018-06-19T00:36:12.286Z,2.67
2018-06-19T00:38:39.842Z,2.80
2018-06-19T00:41:07.392Z,3.40
2018-06-19T00:43:35.018Z,3.00
2018-06-19T00:46:02.865Z,2.90
2018-06-19T00:48:30.375Z,3.50
2018-06-19T00:50:58.140Z,2.97
2018-06-19T00:53:25.708Z,2.93
2018-06-19T00:55:53.291Z,3.57
2018-06-19T00:58:20.840Z,3.60
2018-06-19T01:00:48.341Z,2.97
2018-06-19T01:03:15.910Z,3.20
2018-06-19T01:05:43.439Z,3.03
2018-06-19T01:08:11.036Z,3.00
2018-06-19T01:10:38.610Z,3.07
2018-06-19T01:13:06.225Z,3.90
2018-06-19T01:15:33.716Z,3.43
2018-06-19T01:18:01.235Z,3.07
2018-06-19T01:20:28.887Z,3.20
2018-06-19T01:22:56.483Z,3.30
2018-06-19T01:25:24.018Z,2.70
2018-06-19T01:27:51.560Z,2.97
2018-06-19T01:30:21.257Z,2.80
2018-06-19T01:32:48.877Z,3.20
2018-06-19T01:35:16.438Z,3.00
2018-06-19T01:37:43.941Z,3.50
2018-06-19T01:40:11.395Z,3.20
2018-06-19T01:42:38.978Z,2.80
2018-06-19T01:45:06.513Z,3.07
2018-06-19T01:47:34.044Z,2.60
2018-06-19T01:50:01.566Z,3.17
2018-06-19T01:52:29.147Z,3.10
2018-06-19T01:54:56.687Z,3.23
2018-06-19T01:57:24.137Z,2.87
2018-06-19T01:59:51.719Z,3.47
2018-06-19T02:02:19.288Z,3.37
2018-06-19T02:04:46.731Z,3.20
2018-06-19T02:07:14.268Z,3.20
2018-06-19T02:09:41.731Z,3.80
2018-06-19T02:12:09.246Z,3.10
2018-06-19T02:14:36.786Z,3.10
2018-06-19T02:17:04.275Z,3.83
2018-06-19T02:19:31.802Z,3.30
2018-06-19T02:21:59.434Z,3.40
2018-06-19T02:24:27.036Z,2.90
2018-06-19T02:26:54.647Z,3.63
2018-06-19T02:29:22.247Z,3.57
2018-06-19T02:31:49.783Z,3.40
2018-06-19T02:34:17.329Z,3.53
2018-06-19T02:36:44.889Z,3.07
2018-06-19T02:39:12.424Z,3.40
2018-06-19T02:41:40.252Z,2.90
2018-06-19T02:44:08.146Z,3.00
2018-06-19T02:46:35.839Z,3.37
2018-06-19T02:49:03.570Z,3.10
2018-06-19T02:51:31.136Z,2.97
2018-06-19T02:53:58.819Z,3.50
2018-06-19T02:56:26.389Z,3.57
2018-06-19T02:58:53.940Z,3.13
2018-06-19T03:01:21.523Z,3.40
2018-06-19T03:03:49.054Z,3.57
2018-06-19T03:06:17.698Z,2.93
2018-06-19T03:08:45.189Z,2.87
2018-06-19T03:11:12.696Z,3.27
2018-06-19T03:13:40.349Z,3.07
2018-06-19T03:16:08.061Z,3.30
2018-06-19T03:18:35.678Z,3.10
2018-06-19T03:21:03.291Z,3.63
2018-06-19T03:23:30.886Z,3.27
2018-06-19T03:25:58.468Z,3.03
2018-06-19T03:28:30.530Z,2.77
2018-06-19T03:30:58.102Z,3.33
2018-06-19T03:33:25.640Z,2.80
2018-06-19T03:35:53.194Z,3.30
2018-06-19T03:38:20.745Z,3.80
2018-06-19T03:40:48.397Z,3.70
2018-06-19T03:43:15.926Z,3.07
2018-06-19T03:45:43.472Z,3.57
2018-06-19T03:48:11.004Z,2.90
2018-06-19T03:50:38.587Z,3.30
2018-06-19T03:53:10.240Z,3.33
2018-06-19T03:55:37.834Z,3.00
2018-06-19T03:58:05.730Z,3.57
2018-06-19T04:00:33.359Z,2.97
2018-06-19T04:03:01.025Z,3.30
2018-06-19T04:05:28.538Z,2.90
2018-06-19T04:07:57.161Z,3.23
2018-06-19T04:10:24.664Z,3.20
2018-06-19T04:12:52.287Z,3.20
2018-06-19T04:15:20.083Z,3.40
2018-06-19T04:17:47.792Z,2.57
2018-06-19T04:20:15.565Z,3.50
2018-06-19T04:22:43.139Z,3.00
2018-06-19T04:25:11.168Z,3.47
2018-06-19T04:27:39.116Z,3.20
2018-06-19T04:30:06.779Z,3.10
2018-06-19T04:32:34.314Z,4.13
2018-06-19T04:35:01.867Z,3.97
2018-06-19T04:37:29.448Z,3.83
2018-06-19T04:39:58.012Z,4.23
2018-06-19T04:42:25.616Z,3.50
2018-06-19T04:44:53.207Z,3.87
2018-06-19T04:47:20.718Z,3.50
2018-06-19T04:49:48.246Z,3.70
2018-06-19T04:52:17.850Z,3.47
2018-06-19T04:54:45.371Z,3.80
2018-06-19T04:57:12.946Z,3.33
2018-06-19T04:59:40.452Z,4.10
2018-06-19T05:02:15.269Z,3.77
2018-06-19T05:04:42.844Z,3.77
2018-06-19T05:07:10.350Z,3.00
2018-06-19T05:09:37.834Z,3.80
2018-06-19T05:12:05.383Z,3.33
2018-06-19T05:14:32.981Z,3.67
2018-06-19T05:17:00.625Z,3.60
2018-06-19T05:19:29.166Z,4.13
2018-06-19T05:21:56.698Z,3.97
2018-06-19T05:24:24.437Z,3.50
2018-06-19T05:26:51.968Z,3.10
2018-06-19T05:29:19.758Z,3.37
2018-06-19T05:31:47.254Z,3.77
2018-06-19T05:34:14.852Z,3.27
2018-06-19T05:36:42.330Z,3.47
2018-06-19T05:39:10.798Z,3.53
2018-06-19T05:41:38.470Z,3.40
2018-06-19T05:44:07.158Z,3.27
2018-06-19T05:46:35.289Z,3.13
2018-06-19T05:49:03.120Z,3.67
2018-06-19T05:51:30.872Z,3.23
2018-06-19T05:53:58.829Z,4.00
2018-06-19T05:56:26.870Z,3.17
2018-06-19T05:58:54.598Z,2.80
2018-06-19T06:01:22.323Z,3.73
2018-06-19T06:03:49.996Z,3.10
2018-06-19T06:06:29.354Z,3.10
2018-06-19T06:08:57.010Z,3.10
2018-06-19T06:11:24.660Z,3.27
2018-06-19T06:13:54.265Z,3.40
2018-06-19T06:16:21.926Z,3.00
2018-06-19T06:18:49.603Z,3.40
2018-06-19T06:24:10.673Z,3.53
2018-06-19T06:26:38.282Z,3.33
2018-06-19T06:29:06.935Z,3.57
2018-06-19T06:31:34.598Z,3.83
2018-06-19T06:34:02.299Z,3.27
2018-06-19T06:36:30.040Z,3.40
2018-06-19T06:38:57.771Z,3.27
2018-06-19T06:41:26.426Z,2.67
2018-06-19T06:43:54.096Z,3.60
2018-06-19T06:46:21.806Z,3.00
2018-06-19T06:48:49.409Z,3.07
2018-06-19T06:51:40.822Z,3.70
2018-06-19T06:54:08.513Z,3.30
2018-06-19T06:56:36.203Z,2.93
2018-06-19T06:59:04.039Z,3.63
2018-06-19T07:01:31.695Z,3.00
2018-06-19T07:03:59.360Z,3.00
2018-06-19T07:06:26.977Z,3.03
2018-06-19T07:08:54.665Z,3.77
2018-06-19T07:11:22.280Z,3.17
2018-06-19T07:13:49.895Z,2.87
2018-06-19T07:16:17.446Z,3.43
2018-06-19T07:18:45.075Z,3.10
2018-06-19T07:21:13.629Z,3.33
2018-06-19T07:23:41.174Z,3.43
2018-06-19T07:26:08.711Z,3.57
2018-06-19T07:28:36.326Z,3.60
2018-06-19T07:31:04.004Z,4.00
2018-06-19T07:33:31.596Z,3.67
2018-06-19T07:35:59.272Z,3.70
2018-06-19T07:38:26.888Z,3.67
2018-06-19T07:40:54.456Z,2.90
2018-06-19T07:43:21.978Z,3.00
2018-06-19T07:45:51.632Z,3.13
2018-06-19T07:48:19.236Z,3.00
2018-06-19T07:50:46.799Z,3.10
2018-06-19T07:53:14.316Z,3.43
2018-06-19T07:55:42.077Z,3.20
2018-06-19T07:58:09.642Z,3.43
2018-06-19T08:00:37.144Z,3.80
2018-06-19T08:03:04.910Z,3.00
2018-06-19T08:05:32.528Z,3.33
2018-06-19T08:08:00.055Z,3.00
2018-06-19T08:10:27.645Z,2.53
2018-06-19T08:12:55.237Z,2.53
2018-06-19T08:15:22.806Z,2.80
2018-06-19T08:17:50.427Z,4.17
2018-06-19T08:20:19.048Z,2.90
2018-06-19T08:22:46.685Z,2.50
2018-06-19T08:25:14.296Z,2.30
2018-06-19T08:27:42.009Z,2.33
2018-06-19T08:30:09.729Z,2.50
2018-06-19T08:32:38.538Z,2.37
2018-06-19T08:35:06.119Z,2.97
2018-06-19T08:37:33.806Z,2.80
2018-06-19T08:40:01.657Z,2.30
2018-06-19T08:42:29.211Z,2.60
2018-06-19T08:44:56.785Z,2.27
2018-06-19T08:47:24.385Z,2.23
2018-06-19T08:49:51.951Z,2.20
2018-06-19T08:52:19.598Z,1.97
2018-06-19T08:54:47.305Z,2.40
2018-06-19T08:57:14.883Z,2.77
2018-06-19T08:59:42.492Z,2.13
2018-06-19T09:02:10.262Z,2.87
2018-06-19T09:04:37.964Z,2.60
2018-06-19T09:07:05.788Z,2.10
2018-06-19T09:09:33.416Z,2.00
2018-06-19T09:12:01.162Z,2.00
2018-06-19T09:14:28.875Z,2.43
2018-06-19T09:16:56.670Z,1.97
2018-06-19T09:19:25.506Z,2.40
2018-06-19T09:21:53.105Z,1.93
2018-06-19T09:24:20.882Z,2.40
2018-06-19T09:26:48.508Z,2.20
2018-06-19T09:29:16.247Z,2.30
2018-06-19T09:31:43.954Z,2.50
2018-06-19T09:34:11.618Z,2.47
2018-06-19T09:36:39.424Z,2.50
2018-06-19T09:39:09.238Z,2.47
2018-06-19T09:41:37.163Z,1.63
2018-06-19T09:44:04.913Z,1.90
2018-06-19T09:46:32.876Z,1.87
2018-06-19T09:49:00.748Z,2.17
2018-06-19T09:51:28.476Z,2.20
2018-06-19T09:53:56.233Z,2.17
2018-06-19T09:56:25.950Z,1.77
2018-06-19T09:58:53.744Z,2.07
2018-06-19T10:01:21.932Z,2.43
2018-06-19T10:03:49.912Z,2.07
2018-06-19T10:06:17.810Z,2.20
2018-06-19T10:08:45.576Z,2.67
2018-06-19T10:11:13.613Z,2.47
2018-06-19T10:13:41.484Z,2.67
2018-06-19T10:16:09.306Z,2.20
2018-06-19T10:18:36.952Z,2.37
2018-06-19T10:21:04.807Z,1.90
2018-06-19T10:23:32.478Z,2.00
2018-06-19T10:26:02.312Z,1.70
2018-06-19T10:28:30.031Z,1.90
2018-06-19T10:30:57.746Z,2.13
2018-06-19T10:33:25.441Z,1.70
2018-06-19T10:35:53.121Z,1.80
2018-06-19T10:38:20.773Z,2.00
2018-06-19T10:40:48.325Z,1.83
2018-06-19T10:43:15.922Z,1.93
2018-06-19T10:45:43.553Z,1.43
2018-06-19T10:48:11.058Z,1.97
2018-06-19T10:50:38.571Z,2.00
2018-06-19T10:53:06.224Z,2.00
2018-06-19T10:55:33.747Z,2.17
2018-06-19T10:58:01.194Z,1.80
2018-06-19T11:00:38.539Z,2.13
2018-06-19T11:03:06.139Z,2.30
2018-06-19T11:05:33.698Z,1.90
2018-06-19T11:08:01.250Z,1.90
2018-06-19T11:10:28.862Z,1.70
2018-06-19T11:12:56.461Z,1.63
2018-06-19T11:15:23.982Z,1.53
2018-06-19T11:17:53.592Z,1.40
2018-06-19T11:20:21.193Z,1.80
2018-06-19T11:23:00.418Z,2.07
2018-06-19T11:25:28.131Z,1.53
2018-06-19T11:27:55.808Z,1.97
2018-06-19T11:30:23.368Z,1.50
2018-06-19T11:32:51.026Z,2.00
2018-06-19T11:35:18.651Z,1.90
2018-06-19T11:37:46.260Z,2.00
2018-06-19T11:40:13.896Z,1.43
2018-06-19T11:42:41.344Z,1.90
2018-06-19T11:45:08.867Z,2.60
2018-06-19T11:47:36.495Z,2.10
2018-06-19T11:50:07.743Z,1.73
2018-06-19T11:52:35.398Z,2.10
2018-06-19T11:55:03.051Z,1.77
2018-06-19T11:57:30.664Z,1.50
2018-06-19T12:00:04.367Z,1.87
2018-06-19T12:02:31.940Z,1.60
2018-06-19T12:04:59.545Z,1.47
2018-06-19T12:07:31.782Z,1.60
2018-06-19T12:10:16.185Z,1.60
2018-06-19T12:12:43.846Z,1.63
2018-06-19T12:15:11.423Z,1.63
2018-06-19T12:17:38.971Z,1.70
2018-06-19T12:20:07.486Z,1.70
2018-06-19T12:22:35.324Z,1.60
2018-06-19T12:25:03.078Z,1.87
2018-06-19T12:27:30.672Z,1.50
2018-06-19T12:29:58.356Z,1.80
2018-06-19T12:32:26.577Z,2.20
2018-06-19T12:34:54.290Z,1.87
2018-06-19T12:40:15.436Z,1.57
2018-06-19T12:42:43.130Z,1.93
2018-06-19T12:45:10.748Z,1.70
2018-06-19T12:47:38.335Z,1.80
2018-06-19T12:52:18.711Z,1.90
2018-06-19T12:54:56.915Z,1.77
2018-06-19T12:57:24.486Z,2.00
2018-06-19T12:59:52.183Z,1.93
2018-06-19T13:02:19.999Z,1.40
2018-06-19T13:04:58.794Z,1.50
2018-06-19T13:07:26.712Z,1.60
2018-06-19T13:09:54.794Z,1.70
2018-06-19T13:14:40.803Z,1.80
2018-06-19T13:17:20.216Z,2.00
2018-06-19T13:19:58.978Z,1.53
2018-06-19T13:22:26.700Z,1.53
2018-06-19T13:24:54.548Z,1.90
2018-06-19T13:27:22.204Z,1.73
2018-06-19T13:30:06.210Z,1.40
2018-06-19T13:32:34.479Z,1.47
2018-06-19T13:35:08.324Z,1.50
2018-06-19T13:37:36.252Z,1.40
2018-06-19T13:41:16.355Z,1.23
2018-06-19T13:43:56.058Z,1.67
2018-06-19T13:46:23.718Z,1.20
2018-06-19T13:48:51.337Z,1.50
2018-06-19T13:51:18.898Z,1.23
2018-06-19T13:53:46.496Z,2.00
2018-06-19T13:57:25.558Z,1.30
2018-06-19T13:59:53.096Z,1.50
2018-06-19T14:02:20.618Z,1.50
2018-06-19T14:04:48.311Z,1.50
2018-06-19T14:07:16.029Z,1.30
2018-06-19T14:09:54.837Z,1.73
2018-06-19T14:13:01.265Z,1.90
2018-06-19T14:15:39.539Z,1.70
2018-06-19T14:18:07.350Z,2.07
2018-06-19T14:20:35.137Z,1.80
2018-06-19T14:23:02.738Z,1.73
2018-06-19T14:25:30.284Z,1.70
2018-06-19T14:27:57.887Z,1.80
2018-06-19T14:30:25.526Z,1.97
2018-06-19T14:32:53.096Z,1.73
2018-06-19T14:35:20.597Z,2.00
2018-06-19T14:37:48.185Z,1.93
2018-06-19T14:40:16.146Z,1.30
2018-06-19T14:42:43.790Z,1.77
2018-06-19T14:45:11.718Z,1.73
2018-06-19T14:47:39.445Z,2.10
2018-06-19T14:50:07.120Z,1.80
2018-06-19T14:52:34.711Z,1.90
2018-06-19T14:55:02.346Z,1.67
2018-06-19T14:57:29.967Z,1.77
2018-06-19T14:59:57.646Z,2.00
2018-06-19T15:05:33.596Z,1.80
2018-06-19T15:08:01.171Z,2.07
2018-06-19T15:10:28.709Z,1.90
2018-06-19T15:12:56.207Z,1.80
2018-06-19T15:15:23.714Z,1.83
2018-06-19T15:17:51.255Z,2.20
2018-06-19T15:20:18.802Z,2.23
2018-06-19T15:22:46.418Z,1.87
2018-06-19T15:25:13.935Z,1.53
2018-06-19T15:27:41.513Z,1.90
2018-06-19T15:30:09.016Z,2.10
2018-06-19T15:32:36.583Z,1.77
2018-06-19T15:35:04.227Z,1.70
2018-06-19T15:37:31.766Z,1.73
2018-06-19T15:39:59.264Z,1.30
2018-06-19T15:42:27.775Z,1.70
2018-06-19T15:44:55.315Z,1.20
2018-06-19T15:47:22.860Z,1.60
2018-06-19T15:49:50.493Z,1.70
2018-06-19T15:52:18.078Z,1.60
2018-06-19T15:54:45.589Z,1.53
2018-06-19T15:57:13.174Z,2.40
2018-06-19T15:59:40.712Z,1.30
2018-06-19T16:02:09.416Z,1.30
2018-06-19T16:04:37.090Z,1.63
2018-06-19T16:07:04.681Z,2.20
2018-06-19T16:09:32.225Z,1.90
2018-06-19T16:11:59.769Z,1.60
2018-06-19T16:14:27.303Z,1.43
2018-06-19T16:16:54.938Z,1.80
2018-06-19T16:19:22.590Z,1.10
2018-06-19T16:21:50.209Z,1.30
2018-06-19T16:24:17.789Z,1.33
2018-06-19T16:26:45.395Z,1.07
2018-06-19T16:29:12.911Z,1.23
2018-06-19T16:31:40.457Z,1.40
2018-06-19T16:34:07.994Z,1.20
2018-06-19T16:36:35.611Z,1.40
2018-06-19T16:39:05.227Z,1.27
2018-06-19T16:41:32.764Z,1.33
2018-06-19T16:44:00.314Z,1.53
2018-06-19T16:46:27.960Z,1.77
2018-06-19T16:48:55.506Z,1.23
2018-06-19T16:51:23.148Z,1.30
2018-06-19T16:53:50.810Z,1.60
2018-06-19T16:56:18.317Z,1.10
2018-06-19T16:58:45.838Z,1.33
2018-06-19T17:01:13.420Z,1.47
2018-06-19T17:03:41.018Z,1.40
2018-06-19T17:06:08.570Z,1.20
2018-06-19T17:08:36.155Z,1.37
2018-06-19T17:11:05.160Z,1.60
2018-06-19T17:13:32.720Z,1.47
2018-06-19T17:16:00.301Z,1.53
2018-06-19T17:18:27.819Z,1.70
2018-06-19T17:20:55.369Z,1.33
2018-06-19T17:23:22.898Z,1.33
2018-06-19T17:25:50.439Z,1.80
2018-06-19T17:28:18.010Z,1.77
2018-06-19T17:30:45.514Z,1.57
2018-06-19T17:33:13.038Z,1.73
2018-06-19T17:35:40.541Z,1.63
2018-06-19T17:38:08.159Z,1.40
2018-06-19T17:40:35.724Z,1.90
2018-06-19T17:43:03.272Z,1.40
2018-06-19T17:45:30.805Z,1.40
2018-06-19T17:47:58.391Z,1.47
2018-06-19T17:50:25.967Z,1.47
2018-06-19T17:52:53.482Z,1.50
2018-06-19T17:55:21.069Z,1.80
2018-06-19T17:57:50.661Z,1.70
2018-06-19T18:00:18.919Z,1.57
2018-06-19T18:02:46.632Z,1.77
2018-06-19T18:05:14.202Z,1.60
2018-06-19T18:07:41.846Z,1.53
2018-06-19T18:10:09.436Z,1.60
2018-06-19T18:12:38.001Z,1.80
2018-06-19T18:15:05.563Z,1.40
2018-06-19T18:17:33.060Z,1.63
2018-06-19T18:20:00.622Z,1.40
2018-06-19T18:22:28.222Z,1.30
2018-06-19T18:24:55.823Z,1.70
2018-06-19T18:27:23.387Z,2.40
2018-06-19T18:29:51.052Z,1.53
2018-06-19T18:32:18.732Z,1.37
2018-06-19T18:34:46.361Z,1.73
2018-06-19T18:37:13.997Z,1.63
2018-06-19T18:39:41.602Z,1.50
2018-06-19T18:42:09.286Z,1.57
2018-06-19T18:44:43.986Z,1.80
2018-06-19T18:47:11.888Z,1.40
2018-06-19T18:49:39.510Z,1.77
2018-06-19T18:52:07.127Z,1.80
2018-06-19T18:54:34.825Z,1.60
2018-06-19T18:57:02.583Z,2.20
2018-06-19T18:59:30.331Z,2.03
2018-06-19T19:01:58.146Z,1.67
2018-06-19T19:04:27.178Z,2.13
2018-06-19T19:06:54.890Z,1.90
2018-06-19T19:09:26.170Z,1.93
2018-06-19T19:11:53.920Z,1.93
2018-06-19T19:14:21.538Z,1.97
2018-06-19T19:17:07.450Z,2.13
2018-06-19T19:19:34.975Z,1.83
2018-06-19T19:22:02.681Z,1.63
2018-06-19T19:24:30.224Z,2.00
2018-06-19T19:27:03.477Z,1.63
2018-06-19T19:29:36.638Z,1.90
2018-06-19T19:32:04.262Z,2.47
2018-06-19T19:34:31.968Z,2.10
2018-06-19T19:37:05.185Z,2.17
2018-06-19T19:39:43.509Z,2.20
2018-06-19T19:42:11.153Z,2.30
2018-06-19T19:44:40.030Z,1.93
2018-06-19T19:47:13.602Z,2.40
2018-06-19T19:49:41.462Z,2.43
2018-06-19T19:52:09.160Z,2.57
2018-06-19T19:54:36.903Z,2.73
2018-06-19T19:57:12.804Z,2.67
2018-06-19T19:59:43.681Z,2.60
2018-06-19T20:02:11.263Z,2.70
2018-06-19T20:04:38.990Z,3.40
2018-06-19T20:07:12.358Z,2.53
2018-06-19T20:09:43.508Z,3.27
2018-06-19T20:12:11.871Z,2.80
2018-06-19T20:14:39.771Z,2.80
2018-06-19T20:20:06.963Z,3.30
2018-06-19T20:22:34.603Z,2.90
2018-06-19T20:25:07.300Z,2.77
2018-06-19T20:27:35.174Z,2.67
2018-06-19T20:30:03.936Z,2.80
2018-06-19T20:32:31.644Z,2.73
2018-06-19T20:34:59.634Z,2.60
2018-06-19T20:37:28.282Z,3.03
2018-06-19T20:39:55.838Z,2.50
2018-06-19T20:42:23.552Z,3.13
2018-06-19T20:44:51.217Z,3.60
2018-06-19T20:47:18.889Z,2.40
2018-06-19T20:49:46.853Z,3.20
2018-06-19T20:52:14.397Z,2.50
2018-06-19T20:54:41.986Z,2.50
2018-06-19T20:57:13.940Z,2.70
2018-06-19T20:59:42.649Z,3.20
2018-06-19T21:02:10.317Z,3.07
2018-06-19T21:04:41.773Z,3.40
2018-06-19T21:07:09.396Z,2.60
2018-06-19T21:09:37.530Z,3.43
2018-06-19T21:12:08.488Z,3.40
2018-06-19T21:14:36.030Z,3.07
2018-06-19T21:17:03.626Z,3.40
2018-06-19T21:19:31.201Z,2.43
2018-06-19T21:21:58.736Z,2.90
2018-06-19T21:24:26.308Z,3.23
2018-06-19T21:26:55.960Z,2.83
2018-06-19T21:29:23.506Z,2.90
2018-06-19T21:31:51.065Z,2.90
2018-06-19T21:34:18.611Z,3.07
2018-06-19T21:36:46.130Z,3.90
2018-06-19T21:39:13.709Z,3.53
2018-06-19T21:41:41.267Z,4.23
2018-06-19T21:44:08.804Z,3.67
2018-06-19T21:46:36.342Z,2.97
2018-06-19T21:49:03.885Z,3.37
2018-06-19T21:51:31.343Z,3.20
2018-06-19T21:53:58.840Z,3.23
2018-06-19T21:56:27.419Z,3.80
2018-06-19T21:58:54.976Z,3.50
2018-06-19T22:01:22.578Z,3.20
2018-06-19T22:03:50.041Z,3.13
2018-06-19T22:06:17.548Z,3.00
2018-06-19T22:08:51.030Z,4.00
2018-06-19T22:11:18.653Z,3.37
2018-06-19T22:13:46.487Z,3.77
2018-06-19T22:16:14.096Z,4.43
2018-06-19T22:18:41.630Z,3.87
2018-06-19T22:21:09.174Z,3.80
2018-06-19T22:23:36.863Z,4.07
2018-06-19T22:26:04.652Z,4.00
2018-06-19T22:28:34.456Z,4.23
2018-06-19T22:31:02.016Z,3.80
2018-06-19T22:33:29.529Z,3.90
2018-06-19T22:35:57.124Z,3.40
2018-06-19T22:38:24.746Z,3.73
2018-06-19T22:40:52.300Z,3.87
2018-06-19T22:43:19.817Z,3.80
2018-06-19T22:45:47.448Z,3.70
2018-06-19T22:48:15.020Z,3.70
2018-06-19T22:50:42.620Z,3.60
2018-06-19T22:56:05.562Z,3.70
2018-06-19T22:58:33.106Z,3.70
2018-06-19T23:01:00.735Z,3.40
2018-06-19T23:03:28.202Z,3.20
2018-06-19T23:05:55.768Z,4.43
2018-06-19T23:08:23.402Z,3.90
2018-06-19T23:10:50.924Z,3.90
2018-06-19T23:13:18.549Z,3.70
2018-06-19T23:15:46.164Z,3.50
2018-06-19T23:18:14.826Z,4.33
2018-06-19T23:20:42.362Z,4.67
2018-06-19T23:23:10.055Z,3.60
2018-06-19T23:25:37.576Z,3.60
2018-06-19T23:28:05.151Z,4.23
2018-06-19T23:30:32.646Z,3.70
2018-06-19T23:33:00.240Z,4.43
2018-06-19T23:35:27.824Z,4.47
2018-06-19T23:37:55.340Z,4.17
2018-06-19T23:40:22.858Z,4.40
2018-06-19T23:42:50.406Z,4.67
2018-06-19T23:45:17.989Z,4.43
2018-06-19T23:47:46.720Z,4.73
2018-06-19T23:50:14.266Z,4.20
2018-06-19T23:52:41.854Z,4.43
2018-06-19T23:55:09.400Z,4.17
2018-06-19T23:57:36.881Z,3.80
